»·PEaware :: AAL1228 KSMF-KSEA

AAL1228 :: KSMF-KSEA

FLIGHT INFORMATION

Flight Status: Arrived
Operator:
American Airlines
More flights by this operator :: More flights under this callsign
Pilot: Michael M. (12217)
Aircraft: BOEING 737-300
(B733)
More flights by this aircraft type
Origin: KSMF Sacramento Intl
United States
Destination: KSEA Seattle-Tacoma Intl
United States
More flights between these airports :: More routes between these airports
Route: +RBL J65 LMT J189 BTG HAWKZ6
File this flight plan on PilotEdge
Remarks:
Altitude:
(Current/Filed)
36,000ft
Speed:
(Current/Filed)
4100kts
Departed: 06-Dec-17 04:07 PM
Arrived: 06-Dec-17 06:47 PM
Distance/Time
Traveled:
527nm/2:40
Distance/Time
To Go:
Arrived

Flight Plot

Page will automatically refresh every two minutes.

Flight plan parsing failed; only flown route is shown


Map Options




Map Legend


Flown Route
Filed Route
Departure Airport
Arrival Airport
Navaid (VOR, NDB)
Fix

Horizontal Profiles

Position Reports

Time Latitude Longitude Heading Altitude Ground
Speed
06-Dec-17 15:50 38.692562 -121.586103 320 26ft 0kts
06-Dec-17 15:51 38.692562 -121.586103 320 26ft 0kts
06-Dec-17 15:52 38.692562 -121.586103 320 26ft 0kts
06-Dec-17 15:53 38.692562 -121.586103 320 26ft 0kts
06-Dec-17 15:54 38.692562 -121.586103 320 26ft 0kts
06-Dec-17 15:55 38.692562 -121.586103 320 26ft 0kts
06-Dec-17 15:56 38.692562 -121.586103 320 26ft 0kts
06-Dec-17 15:57 38.692562 -121.586103 320 26ft 0kts
06-Dec-17 15:58 38.692562 -121.586103 320 26ft 0kts
06-Dec-17 15:59 38.692562 -121.586102 320 26ft 0kts
06-Dec-17 16:00 38.692562 -121.586102 320 26ft 0kts
06-Dec-17 16:01 38.692479 -121.586025 329 25ft 2kts
06-Dec-17 16:02 38.692160 -121.585753 321 25ft 0kts
06-Dec-17 16:03 38.692160 -121.585753 321 25ft 0kts
06-Dec-17 16:04 38.692580 -121.585561 27 25ft 11kts
06-Dec-17 16:05 38.693872 -121.585532 137 27ft 2kts
06-Dec-17 16:06 38.693244 -121.582919 188 23ft 14kts
06-Dec-17 16:07 38.688535 -121.582956 180 23ft 21kts
06-Dec-17 16:08 38.683687 -121.582039 93 23ft 0kts
06-Dec-17 16:09 38.683687 -121.582039 93 23ft 0kts
06-Dec-17 16:10 38.683678 -121.581850 93 23ft 0kts
06-Dec-17 16:11 38.685345 -121.580407 1 23ft 30kts
06-Dec-17 16:12 38.721807 -121.580313 15 1141ft 169kts
06-Dec-17 16:13 38.730771 -121.515151 124 2814ft 237kts
06-Dec-17 16:14 38.666429 -121.480386 163 5452ft 268kts
06-Dec-17 16:15 38.602150 -121.441661 111 8250ft 278kts
06-Dec-17 16:16 38.581701 -121.351993 102 10226ft 308kts
06-Dec-17 16:17 38.580932 -121.348473 103 10235ft 312kts
06-Dec-17 16:18 38.580084 -121.344592 103 10237ft 316kts
06-Dec-17 16:19 38.579289 -121.340947 103 10231ft 320kts
06-Dec-17 16:31 38.692562 -121.586103 320 26ft 0kts
06-Dec-17 16:32 38.692562 -121.586103 320 26ft 0kts
06-Dec-17 16:33 38.692562 -121.586103 320 26ft 0kts
06-Dec-17 16:34 38.692562 -121.586103 320 26ft 0kts
06-Dec-17 16:35 38.692562 -121.586103 320 26ft 0kts
06-Dec-17 16:36 38.692562 -121.586103 320 26ft 0kts
06-Dec-17 16:37 38.692562 -121.586103 320 26ft 0kts
06-Dec-17 16:38 38.692562 -121.586103 320 26ft 0kts
06-Dec-17 16:39 38.692562 -121.586103 320 26ft 0kts
06-Dec-17 16:40 38.692562 -121.586103 320 26ft 0kts
06-Dec-17 16:41 38.692562 -121.586103 320 26ft 0kts
06-Dec-17 16:42 38.692562 -121.586103 320 26ft 0kts
06-Dec-17 16:43 38.692562 -121.586103 320 26ft 0kts
06-Dec-17 16:44 38.692498 -121.586036 320 30ft 0kts
06-Dec-17 16:45 38.692498 -121.586036 320 30ft 0kts
06-Dec-17 16:46 38.692498 -121.586036 320 30ft 0kts
06-Dec-17 16:47 38.692498 -121.586036 320 30ft 0kts
06-Dec-17 16:48 38.692498 -121.586036 320 30ft 0kts
06-Dec-17 16:49 38.692562 -121.586103 320 26ft 0kts
06-Dec-17 16:50 38.692562 -121.586103 320 26ft 0kts
06-Dec-17 16:51 38.692562 -121.586103 320 26ft 0kts
06-Dec-17 16:52 38.692562 -121.586103 320 26ft 0kts
06-Dec-17 16:53 38.692562 -121.586103 320 26ft 0kts
06-Dec-17 16:54 38.692562 -121.586103 320 26ft 0kts
06-Dec-17 16:55 38.692562 -121.586103 320 26ft 0kts
06-Dec-17 16:56 38.692562 -121.586103 320 26ft 0kts
06-Dec-17 16:57 38.692562 -121.586103 320 26ft 0kts
06-Dec-17 16:58 38.692562 -121.586103 320 26ft 0kts
06-Dec-17 16:59 38.692562 -121.586103 320 26ft 0kts
06-Dec-17 17:00 38.692562 -121.586103 320 26ft 0kts
06-Dec-17 17:01 38.692562 -121.586103 320 26ft 0kts
06-Dec-17 17:02 38.692562 -121.586103 320 26ft 0kts
06-Dec-17 17:03 38.692562 -121.586103 320 26ft 0kts
06-Dec-17 17:04 38.692562 -121.586103 320 26ft 0kts
06-Dec-17 17:05 38.692517 -121.586057 326 26ft 2kts
06-Dec-17 17:06 38.692152 -121.585732 280 25ft 1kts
06-Dec-17 17:07 38.692197 -121.585256 332 25ft 1kts
06-Dec-17 17:08 38.692154 -121.585221 320 24ft 0kts
06-Dec-17 17:09 38.692154 -121.585221 320 24ft 0kts
06-Dec-17 17:10 38.692154 -121.585221 320 24ft 0kts
06-Dec-17 17:11 38.692154 -121.585221 320 24ft 0kts
06-Dec-17 17:12 38.692154 -121.585221 320 24ft 0kts
06-Dec-17 17:13 38.692154 -121.585221 320 24ft 0kts
06-Dec-17 17:14 38.692154 -121.585221 320 24ft 0kts
06-Dec-17 17:15 38.693630 -121.584965 13 27ft 12kts
06-Dec-17 17:16 38.690459 -121.582949 180 23ft 21kts
06-Dec-17 17:17 38.685103 -121.583038 179 23ft 13kts
06-Dec-17 17:18 38.683663 -121.581862 92 23ft 0kts
06-Dec-17 17:19 38.683662 -121.581838 92 23ft 0kts
06-Dec-17 17:20 38.684347 -121.580484 11 23ft 26kts
06-Dec-17 17:21 38.718235 -121.580910 1 1359ft 170kts
06-Dec-17 17:22 38.762068 -121.559546 23 4195ft 175kts
06-Dec-17 17:23 38.808988 -121.562770 309 5784ft 245kts
06-Dec-17 17:24 38.857100 -121.632346 323 8648ft 276kts
06-Dec-17 17:25 38.925663 -121.680319 339 10915ft 319kts
06-Dec-17 17:26 39.009539 -121.721616 341 13976ft 333kts
06-Dec-17 17:27 39.097660 -121.762776 342 16809ft 345kts
06-Dec-17 17:28 39.187644 -121.804586 343 18948ft 368kts
06-Dec-17 17:29 39.289210 -121.851991 341 20264ft 410kts
06-Dec-17 17:30 39.397568 -121.902779 336 22746ft 413kts
06-Dec-17 17:31 39.502038 -121.951873 337 25874ft 391kts
06-Dec-17 17:32 39.604053 -121.999986 340 27710ft 398kts
06-Dec-17 17:33 39.707715 -122.049019 340 29551ft 399kts
06-Dec-17 17:34 39.809555 -122.097342 340 31463ft 393kts
06-Dec-17 17:35 39.910961 -122.145610 340 33080ft 389kts
06-Dec-17 17:36 40.011322 -122.193529 339 34452ft 385kts
06-Dec-17 17:37 40.112600 -122.234621 2 35038ft 399kts
06-Dec-17 17:38 40.222058 -122.206872 8 36200ft 396kts
06-Dec-17 17:39 40.331297 -122.180341 7 36351ft 402kts
06-Dec-17 17:40 40.440326 -122.153947 7 36346ft 401kts
06-Dec-17 17:41 40.550038 -122.127302 7 36348ft 401kts
06-Dec-17 17:42 40.659367 -122.100664 7 36347ft 401kts
06-Dec-17 17:44 40.768792 -122.073910 8 36347ft 401kts
06-Dec-17 17:45 40.877276 -122.047298 7 36481ft 400kts
06-Dec-17 17:46 40.984241 -122.020973 8 36513ft 401kts
06-Dec-17 17:47 41.093002 -121.994115 8 36508ft 401kts
06-Dec-17 17:48 41.195446 -121.968790 8 36511ft 401kts
06-Dec-17 17:49 41.300281 -121.942738 8 36509ft 401kts
06-Dec-17 17:50 41.409405 -121.915527 8 36509ft 401kts
06-Dec-17 17:50 41.500645 -121.892703 8 36509ft 401kts
06-Dec-17 17:52 41.627596 -121.860838 8 36521ft 400kts
06-Dec-17 17:52 41.718733 -121.837884 8 36566ft 401kts
06-Dec-17 17:54 41.844921 -121.805988 8 36562ft 400kts
06-Dec-17 17:55 41.953078 -121.778552 8 36563ft 400kts
06-Dec-17 17:55 42.043668 -121.755498 8 36564ft 400kts
06-Dec-17 17:57 42.167093 -121.729543 351 36556ft 395kts
06-Dec-17 17:57 42.257468 -121.750975 348 36568ft 397kts
06-Dec-17 17:58 42.365673 -121.775747 349 36562ft 396kts
06-Dec-17 17:59 42.474107 -121.800439 349 36563ft 396kts
06-Dec-17 18:00 42.581747 -121.825037 349 36563ft 396kts
06-Dec-17 18:01 42.690162 -121.849896 349 36563ft 396kts
06-Dec-17 18:02 42.798321 -121.874786 349 36563ft 396kts
06-Dec-17 18:03 42.906772 -121.899832 349 36563ft 396kts
06-Dec-17 18:04 43.015029 -121.924921 349 36565ft 396kts
06-Dec-17 18:05 43.121710 -121.949719 349 36607ft 398kts
06-Dec-17 18:06 43.229722 -121.974867 349 36644ft 396kts
06-Dec-17 18:07 43.337965 -122.000222 349 36644ft 396kts
06-Dec-17 18:08 43.446104 -122.025645 349 36531ft 394kts
06-Dec-17 18:09 43.553966 -122.051097 349 36652ft 397kts
06-Dec-17 18:10 43.662208 -122.076729 349 36643ft 396kts
06-Dec-17 18:11 43.770324 -122.102426 349 36645ft 396kts
06-Dec-17 18:12 43.878626 -122.128261 349 36644ft 396kts
06-Dec-17 18:13 43.986811 -122.154165 349 36644ft 396kts
06-Dec-17 18:14 44.094970 -122.180158 349 36644ft 396kts
06-Dec-17 18:15 44.200979 -122.205648 349 36673ft 395kts
06-Dec-17 18:16 44.309024 -122.231798 349 36480ft 394kts
06-Dec-17 18:17 44.416899 -122.258013 349 36481ft 395kts
06-Dec-17 18:18 44.524715 -122.284310 349 36482ft 395kts
06-Dec-17 18:19 44.627717 -122.309525 349 36482ft 395kts
06-Dec-17 18:20 44.735622 -122.336039 349 36482ft 395kts
06-Dec-17 18:21 44.843067 -122.362538 349 36502ft 394kts
06-Dec-17 18:22 44.950960 -122.389313 348 36510ft 395kts
06-Dec-17 18:23 45.058679 -122.417885 348 36509ft 395kts
06-Dec-17 18:24 45.164728 -122.444476 349 34664ft 405kts
06-Dec-17 18:25 45.274148 -122.471739 349 31736ft 404kts
06-Dec-17 18:26 45.386042 -122.499753 348 28000ft 419kts
06-Dec-17 18:27 45.501508 -122.528774 348 24736ft 412kts
06-Dec-17 18:28 45.611954 -122.556660 350 24555ft 412kts
06-Dec-17 18:29 45.727419 -122.585899 351 24553ft 430kts
06-Dec-17 18:30 45.844541 -122.615246 351 24249ft 425kts
06-Dec-17 18:31 45.960910 -122.644054 351 22707ft 430kts
06-Dec-17 18:32 46.078165 -122.673383 350 22314ft 432kts
06-Dec-17 18:33 46.185311 -122.695480 352 21917ft 432kts
06-Dec-17 18:34 46.304173 -122.719006 352 21385ft 429kts
06-Dec-17 18:35 46.422352 -122.726106 359 18632ft 420kts
06-Dec-17 18:36 46.535211 -122.731513 358 17276ft 384kts
06-Dec-17 18:37 46.638254 -122.738215 358 14837ft 366kts
06-Dec-17 18:38 46.737498 -122.746292 357 12703ft 342kts
06-Dec-17 18:39 46.825069 -122.755235 357 12209ft 307kts
06-Dec-17 18:40 46.878574 -122.677928 72 11972ft 304kts
06-Dec-17 18:41 46.919188 -122.572576 50 12006ft 287kts
06-Dec-17 18:42 46.969648 -122.489190 47 10714ft 280kts
06-Dec-17 18:43 47.035521 -122.423753 30 8211ft 293kts
06-Dec-17 18:44 47.100285 -122.369003 29 7394ft 255kts
06-Dec-17 18:45 47.161343 -122.331019 18 6038ft 253kts
06-Dec-17 18:46 47.228613 -122.311915 1 4546ft 244kts
06-Dec-17 18:47 47.292741 -122.312324 0 3237ft 206kts
06-Dec-17 18:48 47.338165 -122.312047 0 2323ft 137kts
06-Dec-17 18:49 47.375169 -122.311736 0 1619ft 132kts
06-Dec-17 18:50 47.411320 -122.311527 359 902ft 131kts
06-Dec-17 18:51 47.444179 -122.311109 356 382ft 66kts
06-Dec-17 18:52 47.451497 -122.309451 28 413ft 3kts
06-Dec-17 18:53 47.452398 -122.307058 87 419ft 0kts
06-Dec-17 18:54 47.452413 -122.306433 86 420ft 8kts
06-Dec-17 18:55 47.453966 -122.306280 358 427ft 18kts
06-Dec-17 18:56 47.458410 -122.306165 358 440ft 16kts
06-Dec-17 18:57 47.461766 -122.303030 110 443ft 14kts

Navigation Log

Ident Type
Flight plan parsing failed, navigation log unavailable